sensor_id;sensor_type;location;lat;lon;timestamp;P1;durP1;ratioP1;P2;durP2;ratioP2
5805;SDS011;2929;50.810;8.342;2023-06-22T00:01:12;18.80;;;13.10;;
5805;SDS011;2929;50.810;8.342;2023-06-22T00:03:39;19.50;;;13.00;;
5805;SDS011;2929;50.810;8.342;2023-06-22T00:06:06;17.57;;;13.20;;
5805;SDS011;2929;50.810;8.342;2023-06-22T00:08:35;17.03;;;13.87;;
5805;SDS011;2929;50.810;8.342;2023-06-22T00:11:02;15.37;;;13.60;;
5805;SDS011;2929;50.810;8.342;2023-06-22T00:13:29;16.87;;;14.57;;
5805;SDS011;2929;50.810;8.342;2023-06-22T00:15:55;14.47;;;13.03;;
5805;SDS011;2929;50.810;8.342;2023-06-22T00:18:22;16.73;;;14.73;;
5805;SDS011;2929;50.810;8.342;2023-06-22T00:20:53;17.47;;;14.90;;
5805;SDS011;2929;50.810;8.342;2023-06-22T00:23:22;19.23;;;14.53;;
5805;SDS011;2929;50.810;8.342;2023-06-22T00:25:51;19.20;;;14.40;;
5805;SDS011;2929;50.810;8.342;2023-06-22T00:28:18;19.03;;;14.70;;
5805;SDS011;2929;50.810;8.342;2023-06-22T00:30:45;15.93;;;13.97;;
5805;SDS011;2929;50.810;8.342;2023-06-22T00:33:12;28.33;;;14.90;;
5805;SDS011;2929;50.810;8.342;2023-06-22T00:35:40;23.20;;;16.00;;
5805;SDS011;2929;50.810;8.342;2023-06-22T00:38:07;18.60;;;15.10;;
5805;SDS011;2929;50.810;8.342;2023-06-22T00:40:35;19.90;;;16.70;;
5805;SDS011;2929;50.810;8.342;2023-06-22T00:43:03;23.10;;;15.90;;
5805;SDS011;2929;50.810;8.342;2023-06-22T00:45:31;21.20;;;17.00;;
5805;SDS011;2929;50.810;8.342;2023-06-22T00:47:58;20.60;;;18.33;;
5805;SDS011;2929;50.810;8.342;2023-06-22T00:50:26;31.63;;;18.40;;
5805;SDS011;2929;50.810;8.342;2023-06-22T00:52:59;21.60;;;18.20;;
5805;SDS011;2929;50.810;8.342;2023-06-22T00:55:27;21.77;;;17.90;;
5805;SDS011;2929;50.810;8.342;2023-06-22T00:57:55;25.83;;;17.83;;
5805;SDS011;2929;50.810;8.342;2023-06-22T01:00:24;20.70;;;16.23;;
5805;SDS011;2929;50.810;8.342;2023-06-22T01:02:52;20.00;;;16.17;;
5805;SDS011;2929;50.810;8.342;2023-06-22T01:05:20;20.80;;;16.77;;
5805;SDS011;2929;50.810;8.342;2023-06-22T01:08:00;22.10;;;17.60;;
5805;SDS011;2929;50.810;8.342;2023-06-22T01:10:34;24.97;;;19.23;;
5805;SDS011;2929;50.810;8.342;2023-06-22T01:13:08;18.93;;;17.03;;
5805;SDS011;2929;50.810;8.342;2023-06-22T01:15:51;22.00;;;17.87;;
5805;SDS011;2929;50.810;8.342;2023-06-22T01:18:23;24.27;;;17.63;;
5805;SDS011;2929;50.810;8.342;2023-06-22T01:20:53;19.90;;;17.33;;
5805;SDS011;2929;50.810;8.342;2023-06-22T01:23:26;18.93;;;16.80;;
5805;SDS011;2929;50.810;8.342;2023-06-22T01:26:02;19.00;;;17.10;;
5805;SDS011;2929;50.810;8.342;2023-06-22T01:28:42;19.70;;;17.67;;
5805;SDS011;2929;50.810;8.342;2023-06-22T01:31:12;23.43;;;18.20;;
5805;SDS011;2929;50.810;8.342;2023-06-22T01:33:44;17.00;;;15.30;;
5805;SDS011;2929;50.810;8.342;2023-06-22T01:36:13;25.50;;;17.47;;
5805;SDS011;2929;50.810;8.342;2023-06-22T01:38:45;17.73;;;15.90;;
5805;SDS011;2929;50.810;8.342;2023-06-22T01:41:13;21.23;;;16.30;;
5805;SDS011;2929;50.810;8.342;2023-06-22T01:43:42;27.17;;;16.30;;
5805;SDS011;2929;50.810;8.342;2023-06-22T01:46:11;25.80;;;15.47;;
5805;SDS011;2929;50.810;8.342;2023-06-22T01:48:38;20.23;;;16.77;;
5805;SDS011;2929;50.810;8.342;2023-06-22T01:51:06;20.63;;;18.47;;
5805;SDS011;2929;50.810;8.342;2023-06-22T01:53:33;23.30;;;17.40;;
5805;SDS011;2929;50.810;8.342;2023-06-22T01:56:00;19.83;;;16.93;;
5805;SDS011;2929;50.810;8.342;2023-06-22T01:58:29;19.33;;;16.20;;
5805;SDS011;2929;50.810;8.342;2023-06-22T02:01:00;27.30;;;18.27;;
5805;SDS011;2929;50.810;8.342;2023-06-22T02:03:41;18.87;;;16.33;;
5805;SDS011;2929;50.810;8.342;2023-06-22T02:06:15;24.03;;;16.00;;
5805;SDS011;2929;50.810;8.342;2023-06-22T02:08:46;21.20;;;18.07;;
5805;SDS011;2929;50.810;8.342;2023-06-22T02:11:16;20.43;;;16.93;;
5805;SDS011;2929;50.810;8.342;2023-06-22T02:13:46;24.03;;;17.57;;
5805;SDS011;2929;50.810;8.342;2023-06-22T02:16:15;21.07;;;17.23;;
5805;SDS011;2929;50.810;8.342;2023-06-22T02:18:45;20.57;;;17.83;;
5805;SDS011;2929;50.810;8.342;2023-06-22T02:21:13;18.80;;;16.80;;
5805;SDS011;2929;50.810;8.342;2023-06-22T02:23:41;37.33;;;20.90;;
5805;SDS011;2929;50.810;8.342;2023-06-22T02:26:07;23.43;;;18.07;;
5805;SDS011;2929;50.810;8.342;2023-06-22T02:28:35;27.20;;;18.47;;
5805;SDS011;2929;50.810;8.342;2023-06-22T02:31:02;28.90;;;18.63;;
5805;SDS011;2929;50.810;8.342;2023-06-22T02:33:30;21.37;;;18.10;;
5805;SDS011;2929;50.810;8.342;2023-06-22T02:35:57;22.20;;;18.13;;
5805;SDS011;2929;50.810;8.342;2023-06-22T02:38:24;20.23;;;18.10;;
5805;SDS011;2929;50.810;8.342;2023-06-22T02:40:51;22.13;;;17.63;;
5805;SDS011;2929;50.810;8.342;2023-06-22T02:43:18;19.83;;;17.07;;
5805;SDS011;2929;50.810;8.342;2023-06-22T02:45:45;25.67;;;15.43;;
5805;SDS011;2929;50.810;8.342;2023-06-22T02:48:12;20.30;;;17.80;;
5805;SDS011;2929;50.810;8.342;2023-06-22T02:50:40;21.90;;;17.67;;
5805;SDS011;2929;50.810;8.342;2023-06-22T02:53:07;21.03;;;17.80;;
5805;SDS011;2929;50.810;8.342;2023-06-22T02:55:37;21.03;;;18.90;;
5805;SDS011;2929;50.810;8.342;2023-06-22T02:58:05;22.07;;;18.50;;
5805;SDS011;2929;50.810;8.342;2023-06-22T03:00:35;23.20;;;18.40;;
5805;SDS011;2929;50.810;8.342;2023-06-22T03:03:02;23.23;;;17.70;;
5805;SDS011;2929;50.810;8.342;2023-06-22T03:05:29;27.00;;;19.77;;
5805;SDS011;2929;50.810;8.342;2023-06-22T03:08:00;22.77;;;18.53;;
5805;SDS011;2929;50.810;8.342;2023-06-22T03:10:30;23.03;;;19.03;;
5805;SDS011;2929;50.810;8.342;2023-06-22T03:12:57;24.97;;;18.77;;
5805;SDS011;2929;50.810;8.342;2023-06-22T03:15:24;22.33;;;20.00;;
5805;SDS011;2929;50.810;8.342;2023-06-22T03:17:54;25.97;;;18.10;;
5805;SDS011;2929;50.810;8.342;2023-06-22T03:20:22;26.10;;;19.30;;
5805;SDS011;2929;50.810;8.342;2023-06-22T03:22:50;29.50;;;17.70;;
5805;SDS011;2929;50.810;8.342;2023-06-22T03:25:19;25.27;;;19.63;;
5805;SDS011;2929;50.810;8.342;2023-06-22T03:27:48;27.43;;;20.00;;
5805;SDS011;2929;50.810;8.342;2023-06-22T03:30:15;26.23;;;18.80;;
5805;SDS011;2929;50.810;8.342;2023-06-22T03:32:42;21.83;;;18.60;;
5805;SDS011;2929;50.810;8.342;2023-06-22T03:35:09;21.40;;;19.17;;
5805;SDS011;2929;50.810;8.342;2023-06-22T03:37:39;22.60;;;19.90;;
5805;SDS011;2929;50.810;8.342;2023-06-22T03:40:06;23.87;;;19.70;;
5805;SDS011;2929;50.810;8.342;2023-06-22T03:42:36;22.93;;;18.87;;
5805;SDS011;2929;50.810;8.342;2023-06-22T03:45:03;24.27;;;20.33;;
5805;SDS011;2929;50.810;8.342;2023-06-22T03:47:31;26.20;;;19.73;;
5805;SDS011;2929;50.810;8.342;2023-06-22T03:49:59;26.00;;;20.37;;
5805;SDS011;2929;50.810;8.342;2023-06-22T03:52:28;23.03;;;18.83;;
5805;SDS011;2929;50.810;8.342;2023-06-22T03:54:55;24.73;;;20.47;;
5805;SDS011;2929;50.810;8.342;2023-06-22T03:57:22;29.37;;;20.07;;
5805;SDS011;2929;50.810;8.342;2023-06-22T03:59:50;21.43;;;18.73;;
5805;SDS011;2929;50.810;8.342;2023-06-22T04:02:17;22.50;;;19.97;;
5805;SDS011;2929;50.810;8.342;2023-06-22T04:04:44;22.03;;;17.97;;
5805;SDS011;2929;50.810;8.342;2023-06-22T04:07:11;21.07;;;18.83;;
5805;SDS011;2929;50.810;8.342;2023-06-22T04:09:38;23.87;;;19.10;;
5805;SDS011;2929;50.810;8.342;2023-06-22T04:12:05;20.80;;;18.40;;
5805;SDS011;2929;50.810;8.342;2023-06-22T04:14:33;20.30;;;18.20;;
5805;SDS011;2929;50.810;8.342;2023-06-22T04:17:02;27.73;;;19.60;;
5805;SDS011;2929;50.810;8.342;2023-06-22T04:19:29;23.13;;;19.40;;
5805;SDS011;2929;50.810;8.342;2023-06-22T04:21:56;27.70;;;18.67;;
5805;SDS011;2929;50.810;8.342;2023-06-22T04:24:23;24.33;;;19.10;;
5805;SDS011;2929;50.810;8.342;2023-06-22T04:26:50;25.03;;;18.20;;
5805;SDS011;2929;50.810;8.342;2023-06-22T04:29:22;22.43;;;18.97;;
5805;SDS011;2929;50.810;8.342;2023-06-22T04:31:54;24.13;;;20.17;;
5805;SDS011;2929;50.810;8.342;2023-06-22T04:34:24;30.87;;;19.30;;
5805;SDS011;2929;50.810;8.342;2023-06-22T04:36:52;28.90;;;21.40;;
5805;SDS011;2929;50.810;8.342;2023-06-22T04:39:19;23.90;;;19.60;;
5805;SDS011;2929;50.810;8.342;2023-06-22T04:41:46;29.10;;;19.70;;
5805;SDS011;2929;50.810;8.342;2023-06-22T04:44:14;29.47;;;18.20;;
5805;SDS011;2929;50.810;8.342;2023-06-22T04:46:49;25.50;;;19.40;;
5805;SDS011;2929;50.810;8.342;2023-06-22T04:49:18;23.87;;;18.43;;
5805;SDS011;2929;50.810;8.342;2023-06-22T04:51:47;28.27;;;20.87;;
5805;SDS011;2929;50.810;8.342;2023-06-22T04:54:16;27.27;;;17.73;;
5805;SDS011;2929;50.810;8.342;2023-06-22T04:56:44;26.43;;;18.90;;
5805;SDS011;2929;50.810;8.342;2023-06-22T04:59:11;21.10;;;19.00;;
5805;SDS011;2929;50.810;8.342;2023-06-22T05:01:40;30.30;;;18.57;;
5805;SDS011;2929;50.810;8.342;2023-06-22T05:04:07;23.80;;;19.13;;
5805;SDS011;2929;50.810;8.342;2023-06-22T05:06:34;23.10;;;19.20;;
5805;SDS011;2929;50.810;8.342;2023-06-22T05:09:02;28.70;;;19.37;;
5805;SDS011;2929;50.810;8.342;2023-06-22T05:11:30;26.87;;;19.50;;
5805;SDS011;2929;50.810;8.342;2023-06-22T05:13:57;21.73;;;19.53;;
5805;SDS011;2929;50.810;8.342;2023-06-22T05:16:24;20.40;;;17.53;;
5805;SDS011;2929;50.810;8.342;2023-06-22T05:18:52;20.80;;;18.53;;
5805;SDS011;2929;50.810;8.342;2023-06-22T05:21:23;20.50;;;17.43;;
5805;SDS011;2929;50.810;8.342;2023-06-22T05:23:51;22.70;;;20.30;;
5805;SDS011;2929;50.810;8.342;2023-06-22T05:26:21;26.10;;;18.30;;
5805;SDS011;2929;50.810;8.342;2023-06-22T05:28:48;21.70;;;19.50;;
5805;SDS011;2929;50.810;8.342;2023-06-22T05:31:15;23.10;;;19.90;;
5805;SDS011;2929;50.810;8.342;2023-06-22T05:33:45;19.90;;;17.60;;
5805;SDS011;2929;50.810;8.342;2023-06-22T05:36:13;21.30;;;19.03;;
5805;SDS011;2929;50.810;8.342;2023-06-22T05:38:40;22.07;;;19.70;;
5805;SDS011;2929;50.810;8.342;2023-06-22T05:41:08;22.30;;;18.90;;
5805;SDS011;2929;50.810;8.342;2023-06-22T05:43:36;21.50;;;18.70;;
5805;SDS011;2929;50.810;8.342;2023-06-22T05:46:03;22.53;;;19.00;;
5805;SDS011;2929;50.810;8.342;2023-06-22T05:48:31;22.80;;;17.90;;
5805;SDS011;2929;50.810;8.342;2023-06-22T05:50:59;26.83;;;19.60;;
5805;SDS011;2929;50.810;8.342;2023-06-22T05:53:26;24.33;;;18.30;;
5805;SDS011;2929;50.810;8.342;2023-06-22T05:55:53;20.50;;;18.03;;
5805;SDS011;2929;50.810;8.342;2023-06-22T05:58:20;19.47;;;17.30;;
5805;SDS011;2929;50.810;8.342;2023-06-22T06:00:49;21.80;;;17.40;;
5805;SDS011;2929;50.810;8.342;2023-06-22T06:03:16;18.90;;;16.97;;
5805;SDS011;2929;50.810;8.342;2023-06-22T06:05:43;20.23;;;16.10;;
5805;SDS011;2929;50.810;8.342;2023-06-22T06:08:10;17.40;;;15.60;;
5805;SDS011;2929;50.810;8.342;2023-06-22T06:10:38;20.53;;;15.50;;
5805;SDS011;2929;50.810;8.342;2023-06-22T06:13:05;16.90;;;15.00;;
5805;SDS011;2929;50.810;8.342;2023-06-22T06:15:33;21.63;;;16.13;;
5805;SDS011;2929;50.810;8.342;2023-06-22T06:18:02;18.27;;;14.83;;
5805;SDS011;2929;50.810;8.342;2023-06-22T06:20:30;18.40;;;13.03;;
5805;SDS011;2929;50.810;8.342;2023-06-22T06:22:57;15.47;;;12.87;;
5805;SDS011;2929;50.810;8.342;2023-06-22T06:25:24;16.50;;;12.17;;
5805;SDS011;2929;50.810;8.342;2023-06-22T06:27:52;15.93;;;11.50;;
5805;SDS011;2929;50.810;8.342;2023-06-22T06:30:20;13.60;;;12.20;;
5805;SDS011;2929;50.810;8.342;2023-06-22T06:32:48;14.87;;;12.13;;
5805;SDS011;2929;50.810;8.342;2023-06-22T06:35:17;13.97;;;11.67;;
5805;SDS011;2929;50.810;8.342;2023-06-22T06:37:45;16.17;;;12.33;;
5805;SDS011;2929;50.810;8.342;2023-06-22T06:40:13;16.93;;;12.97;;
5805;SDS011;2929;50.810;8.342;2023-06-22T06:42:41;13.87;;;12.07;;
5805;SDS011;2929;50.810;8.342;2023-06-22T06:45:10;11.57;;;10.37;;
5805;SDS011;2929;50.810;8.342;2023-06-22T06:47:38;11.27;;;9.23;;
5805;SDS011;2929;50.810;8.342;2023-06-22T06:50:06;12.00;;;10.47;;
5805;SDS011;2929;50.810;8.342;2023-06-22T06:52:35;12.40;;;10.03;;
5805;SDS011;2929;50.810;8.342;2023-06-22T06:55:02;11.30;;;9.50;;
5805;SDS011;2929;50.810;8.342;2023-06-22T06:57:33;10.23;;;9.23;;
5805;SDS011;2929;50.810;8.342;2023-06-22T07:00:02;10.77;;;9.50;;
5805;SDS011;2929;50.810;8.342;2023-06-22T07:02:35;20.90;;;10.20;;
5805;SDS011;2929;50.810;8.342;2023-06-22T07:05:02;11.93;;;9.73;;
5805;SDS011;2929;50.810;8.342;2023-06-22T07:07:29;10.30;;;9.20;;
5805;SDS011;2929;50.810;8.342;2023-06-22T07:09:58;13.70;;;10.33;;
5805;SDS011;2929;50.810;8.342;2023-06-22T07:12:25;13.13;;;10.40;;
5805;SDS011;2929;50.810;8.342;2023-06-22T07:14:52;10.70;;;9.57;;
5805;SDS011;2929;50.810;8.342;2023-06-22T07:17:19;13.40;;;10.03;;
5805;SDS011;2929;50.810;8.342;2023-06-22T07:19:46;11.50;;;10.37;;
5805;SDS011;2929;50.810;8.342;2023-06-22T07:22:13;13.50;;;10.37;;
5805;SDS011;2929;50.810;8.342;2023-06-22T07:24:40;11.40;;;10.30;;
5805;SDS011;2929;50.810;8.342;2023-06-22T07:27:08;13.80;;;10.33;;
5805;SDS011;2929;50.810;8.342;2023-06-22T07:29:37;10.90;;;9.80;;
5805;SDS011;2929;50.810;8.342;2023-06-22T07:32:05;13.27;;;9.40;;
5805;SDS011;2929;50.810;8.342;2023-06-22T07:34:33;11.27;;;10.17;;
5805;SDS011;2929;50.810;8.342;2023-06-22T07:37:00;10.93;;;9.83;;
5805;SDS011;2929;50.810;8.342;2023-06-22T07:39:27;11.47;;;8.90;;
5805;SDS011;2929;50.810;8.342;2023-06-22T07:41:54;15.60;;;10.00;;
5805;SDS011;2929;50.810;8.342;2023-06-22T07:44:23;24.03;;;11.40;;
5805;SDS011;2929;50.810;8.342;2023-06-22T07:46:50;16.13;;;9.30;;
5805;SDS011;2929;50.810;8.342;2023-06-22T07:49:17;10.57;;;9.57;;
5805;SDS011;2929;50.810;8.342;2023-06-22T07:51:44;12.13;;;9.20;;
5805;SDS011;2929;50.810;8.342;2023-06-22T07:54:11;10.40;;;9.30;;
5805;SDS011;2929;50.810;8.342;2023-06-22T07:56:38;12.93;;;9.50;;
5805;SDS011;2929;50.810;8.342;2023-06-22T07:59:05;13.50;;;9.07;;
5805;SDS011;2929;50.810;8.342;2023-06-22T08:01:33;9.57;;;8.23;;
5805;SDS011;2929;50.810;8.342;2023-06-22T08:04:00;11.00;;;8.40;;
5805;SDS011;2929;50.810;8.342;2023-06-22T08:06:29;9.87;;;8.83;;
5805;SDS011;2929;50.810;8.342;2023-06-22T08:08:56;11.30;;;8.50;;
5805;SDS011;2929;50.810;8.342;2023-06-22T08:11:24;8.23;;;7.50;;
5805;SDS011;2929;50.810;8.342;2023-06-22T08:13:51;10.37;;;8.20;;
5805;SDS011;2929;50.810;8.342;2023-06-22T08:16:21;10.37;;;8.10;;
5805;SDS011;2929;50.810;8.342;2023-06-22T08:18:49;10.23;;;8.53;;
5805;SDS011;2929;50.810;8.342;2023-06-22T08:21:16;10.00;;;8.93;;
5805;SDS011;2929;50.810;8.342;2023-06-22T08:23:43;10.63;;;8.97;;
5805;SDS011;2929;50.810;8.342;2023-06-22T08:26:10;9.70;;;8.57;;
5805;SDS011;2929;50.810;8.342;2023-06-22T08:28:37;15.73;;;7.90;;
5805;SDS011;2929;50.810;8.342;2023-06-22T08:31:04;9.60;;;8.13;;
5805;SDS011;2929;50.810;8.342;2023-06-22T08:33:31;10.20;;;8.10;;
5805;SDS011;2929;50.810;8.342;2023-06-22T08:36:01;8.33;;;7.53;;
5805;SDS011;2929;50.810;8.342;2023-06-22T08:38:28;8.87;;;7.70;;
5805;SDS011;2929;50.810;8.342;2023-06-22T08:40:55;14.80;;;7.70;;
5805;SDS011;2929;50.810;8.342;2023-06-22T08:43:22;8.33;;;7.43;;
5805;SDS011;2929;50.810;8.342;2023-06-22T08:45:49;11.10;;;7.70;;
5805;SDS011;2929;50.810;8.342;2023-06-22T08:48:16;11.93;;;8.00;;
5805;SDS011;2929;50.810;8.342;2023-06-22T08:50:43;10.80;;;7.47;;
5805;SDS011;2929;50.810;8.342;2023-06-22T08:53:11;7.60;;;6.87;;
5805;SDS011;2929;50.810;8.342;2023-06-22T08:55:38;8.63;;;7.03;;
5805;SDS011;2929;50.810;8.342;2023-06-22T08:58:05;8.70;;;7.60;;
5805;SDS011;2929;50.810;8.342;2023-06-22T09:00:32;12.17;;;7.50;;
5805;SDS011;2929;50.810;8.342;2023-06-22T09:03:00;9.10;;;7.80;;
5805;SDS011;2929;50.810;8.342;2023-06-22T09:05:27;9.87;;;7.60;;
5805;SDS011;2929;50.810;8.342;2023-06-22T09:07:55;8.90;;;7.50;;
5805;SDS011;2929;50.810;8.342;2023-06-22T09:10:25;9.23;;;7.77;;
5805;SDS011;2929;50.810;8.342;2023-06-22T09:12:52;10.17;;;8.17;;
5805;SDS011;2929;50.810;8.342;2023-06-22T09:15:19;10.77;;;7.80;;
5805;SDS011;2929;50.810;8.342;2023-06-22T09:17:46;8.97;;;8.00;;
5805;SDS011;2929;50.810;8.342;2023-06-22T09:20:13;8.00;;;7.20;;
5805;SDS011;2929;50.810;8.342;2023-06-22T09:22:40;9.20;;;7.93;;
5805;SDS011;2929;50.810;8.342;2023-06-22T09:25:08;9.40;;;7.77;;
5805;SDS011;2929;50.810;8.342;2023-06-22T09:27:37;9.63;;;7.37;;
5805;SDS011;2929;50.810;8.342;2023-06-22T09:30:04;10.80;;;8.60;;
5805;SDS011;2929;50.810;8.342;2023-06-22T09:32:32;11.10;;;8.07;;
5805;SDS011;2929;50.810;8.342;2023-06-22T09:35:01;8.80;;;7.50;;
5805;SDS011;2929;50.810;8.342;2023-06-22T09:37:31;7.77;;;6.97;;
5805;SDS011;2929;50.810;8.342;2023-06-22T09:39:58;11.40;;;8.13;;
5805;SDS011;2929;50.810;8.342;2023-06-22T09:42:26;8.87;;;7.97;;
5805;SDS011;2929;50.810;8.342;2023-06-22T09:44:54;10.50;;;8.60;;
5805;SDS011;2929;50.810;8.342;2023-06-22T09:47:21;9.17;;;8.27;;
5805;SDS011;2929;50.810;8.342;2023-06-22T09:49:48;10.70;;;7.60;;
5805;SDS011;2929;50.810;8.342;2023-06-22T09:52:15;11.30;;;7.43;;
5805;SDS011;2929;50.810;8.342;2023-06-22T09:54:42;10.47;;;8.20;;
5805;SDS011;2929;50.810;8.342;2023-06-22T09:57:10;10.97;;;7.67;;
5805;SDS011;2929;50.810;8.342;2023-06-22T09:59:36;8.37;;;7.57;;
5805;SDS011;2929;50.810;8.342;2023-06-22T10:02:06;10.80;;;7.97;;
5805;SDS011;2929;50.810;8.342;2023-06-22T10:04:33;10.37;;;8.30;;
5805;SDS011;2929;50.810;8.342;2023-06-22T10:07:01;8.90;;;7.90;;
5805;SDS011;2929;50.810;8.342;2023-06-22T10:09:28;10.03;;;8.73;;
5805;SDS011;2929;50.810;8.342;2023-06-22T10:11:55;12.83;;;7.87;;
5805;SDS011;2929;50.810;8.342;2023-06-22T10:14:22;10.00;;;8.10;;
5805;SDS011;2929;50.810;8.342;2023-06-22T10:16:51;8.60;;;7.80;;
5805;SDS011;2929;50.810;8.342;2023-06-22T10:19:20;11.90;;;8.53;;
5805;SDS011;2929;50.810;8.342;2023-06-22T10:21:47;8.90;;;8.03;;
5805;SDS011;2929;50.810;8.342;2023-06-22T10:24:14;8.57;;;7.77;;
5805;SDS011;2929;50.810;8.342;2023-06-22T10:26:41;9.70;;;8.37;;
5805;SDS011;2929;50.810;8.342;2023-06-22T10:29:08;14.97;;;7.63;;
5805;SDS011;2929;50.810;8.342;2023-06-22T10:31:35;8.50;;;7.50;;
5805;SDS011;2929;50.810;8.342;2023-06-22T10:34:02;9.17;;;7.67;;
5805;SDS011;2929;50.810;8.342;2023-06-22T10:36:30;7.77;;;6.93;;
5805;SDS011;2929;50.810;8.342;2023-06-22T10:38:57;8.77;;;7.77;;
5805;SDS011;2929;50.810;8.342;2023-06-22T10:41:26;10.87;;;8.27;;
5805;SDS011;2929;50.810;8.342;2023-06-22T10:43:55;14.13;;;8.17;;
5805;SDS011;2929;50.810;8.342;2023-06-22T10:46:23;8.13;;;7.33;;
5805;SDS011;2929;50.810;8.342;2023-06-22T10:48:52;8.60;;;7.30;;
5805;SDS011;2929;50.810;8.342;2023-06-22T10:51:22;9.00;;;7.63;;
5805;SDS011;2929;50.810;8.342;2023-06-22T10:53:50;7.97;;;7.10;;
5805;SDS011;2929;50.810;8.342;2023-06-22T10:56:18;8.83;;;7.37;;
5805;SDS011;2929;50.810;8.342;2023-06-22T10:58:45;12.50;;;8.03;;
5805;SDS011;2929;50.810;8.342;2023-06-22T11:01:14;9.70;;;8.07;;
5805;SDS011;2929;50.810;8.342;2023-06-22T11:03:41;10.83;;;7.67;;
5805;SDS011;2929;50.810;8.342;2023-06-22T11:06:08;8.10;;;7.40;;
5805;SDS011;2929;50.810;8.342;2023-06-22T11:08:35;10.07;;;8.00;;
5805;SDS011;2929;50.810;8.342;2023-06-22T11:11:04;13.43;;;7.13;;
5805;SDS011;2929;50.810;8.342;2023-06-22T11:13:31;14.80;;;8.10;;
5805;SDS011;2929;50.810;8.342;2023-06-22T11:15:59;18.77;;;7.50;;
5805;SDS011;2929;50.810;8.342;2023-06-22T11:18:26;9.20;;;7.17;;
5805;SDS011;2929;50.810;8.342;2023-06-22T11:20:53;9.00;;;8.10;;
5805;SDS011;2929;50.810;8.342;2023-06-22T11:23:21;9.10;;;7.70;;
5805;SDS011;2929;50.810;8.342;2023-06-22T11:25:49;14.30;;;8.67;;
5805;SDS011;2929;50.810;8.342;2023-06-22T11:28:18;10.23;;;8.10;;
5805;SDS011;2929;50.810;8.342;2023-06-22T11:30:45;10.00;;;8.80;;
5805;SDS011;2929;50.810;8.342;2023-06-22T11:33:12;13.70;;;8.70;;
5805;SDS011;2929;50.810;8.342;2023-06-22T11:35:39;10.40;;;7.50;;
5805;SDS011;2929;50.810;8.342;2023-06-22T11:38:06;8.50;;;7.70;;
5805;SDS011;2929;50.810;8.342;2023-06-22T11:40:34;8.33;;;7.53;;
5805;SDS011;2929;50.810;8.342;2023-06-22T11:43:01;8.83;;;7.60;;
5805;SDS011;2929;50.810;8.342;2023-06-22T11:45:30;8.23;;;7.40;;
5805;SDS011;2929;50.810;8.342;2023-06-22T11:47:57;12.90;;;8.50;;
5805;SDS011;2929;50.810;8.342;2023-06-22T11:50:25;9.67;;;8.57;;
5805;SDS011;2929;50.810;8.342;2023-06-22T11:52:53;14.43;;;8.57;;
5805;SDS011;2929;50.810;8.342;2023-06-22T11:55:22;8.87;;;8.07;;
5805;SDS011;2929;50.810;8.342;2023-06-22T11:57:53;10.93;;;7.67;;
5805;SDS011;2929;50.810;8.342;2023-06-22T12:00:21;10.40;;;8.30;;
5805;SDS011;2929;50.810;8.342;2023-06-22T12:02:51;10.60;;;7.87;;
5805;SDS011;2929;50.810;8.342;2023-06-22T12:05:19;8.40;;;7.53;;
5805;SDS011;2929;50.810;8.342;2023-06-22T12:07:47;12.63;;;8.37;;
5805;SDS011;2929;50.810;8.342;2023-06-22T12:10:14;9.30;;;8.40;;
5805;SDS011;2929;50.810;8.342;2023-06-22T12:12:42;12.60;;;8.57;;
5805;SDS011;2929;50.810;8.342;2023-06-22T12:15:09;8.73;;;7.63;;
5805;SDS011;2929;50.810;8.342;2023-06-22T12:17:37;12.07;;;8.03;;
5805;SDS011;2929;50.810;8.342;2023-06-22T12:20:07;8.53;;;7.63;;
5805;SDS011;2929;50.810;8.342;2023-06-22T12:22:34;11.40;;;7.83;;
5805;SDS011;2929;50.810;8.342;2023-06-22T12:25:03;8.53;;;7.30;;
5805;SDS011;2929;50.810;8.342;2023-06-22T12:27:30;8.10;;;7.30;;
5805;SDS011;2929;50.810;8.342;2023-06-22T12:29:58;9.60;;;7.50;;
5805;SDS011;2929;50.810;8.342;2023-06-22T12:32:25;11.77;;;7.40;;
5805;SDS011;2929;50.810;8.342;2023-06-22T12:34:52;8.47;;;7.63;;
5805;SDS011;2929;50.810;8.342;2023-06-22T12:37:21;8.20;;;7.40;;
5805;SDS011;2929;50.810;8.342;2023-06-22T12:39:48;10.07;;;7.23;;
5805;SDS011;2929;50.810;8.342;2023-06-22T12:42:16;9.53;;;8.00;;
5805;SDS011;2929;50.810;8.342;2023-06-22T12:44:43;9.23;;;7.87;;
5805;SDS011;2929;50.810;8.342;2023-06-22T12:47:10;8.70;;;7.80;;
5805;SDS011;2929;50.810;8.342;2023-06-22T12:49:38;9.10;;;8.20;;
5805;SDS011;2929;50.810;8.342;2023-06-22T12:52:08;10.50;;;8.43;;
5805;SDS011;2929;50.810;8.342;2023-06-22T12:54:38;10.00;;;7.90;;
5805;SDS011;2929;50.810;8.342;2023-06-22T12:57:06;8.60;;;7.80;;
5805;SDS011;2929;50.810;8.342;2023-06-22T12:59:33;9.50;;;7.67;;
5805;SDS011;2929;50.810;8.342;2023-06-22T13:02:00;9.23;;;7.10;;
5805;SDS011;2929;50.810;8.342;2023-06-22T13:04:27;9.40;;;7.60;;
5805;SDS011;2929;50.810;8.342;2023-06-22T13:06:54;9.33;;;7.37;;
5805;SDS011;2929;50.810;8.342;2023-06-22T13:09:21;9.27;;;7.40;;
5805;SDS011;2929;50.810;8.342;2023-06-22T13:11:50;9.47;;;7.60;;
5805;SDS011;2929;50.810;8.342;2023-06-22T13:14:17;12.03;;;7.83;;
5805;SDS011;2929;50.810;8.342;2023-06-22T13:16:45;10.70;;;6.53;;
5805;SDS011;2929;50.810;8.342;2023-06-22T13:19:11;10.67;;;7.30;;
5805;SDS011;2929;50.810;8.342;2023-06-22T13:21:39;13.73;;;7.03;;
5805;SDS011;2929;50.810;8.342;2023-06-22T13:24:07;8.90;;;7.00;;
5805;SDS011;2929;50.810;8.342;2023-06-22T13:26:34;7.53;;;6.83;;
5805;SDS011;2929;50.810;8.342;2023-06-22T13:29:02;10.90;;;7.23;;
5805;SDS011;2929;50.810;8.342;2023-06-22T13:31:30;9.40;;;6.80;;
5805;SDS011;2929;50.810;8.342;2023-06-22T13:33:57;8.87;;;6.50;;
5805;SDS011;2929;50.810;8.342;2023-06-22T13:36:23;8.40;;;7.60;;
5805;SDS011;2929;50.810;8.342;2023-06-22T13:38:51;7.50;;;6.70;;
5805;SDS011;2929;50.810;8.342;2023-06-22T13:41:17;8.83;;;6.73;;
5805;SDS011;2929;50.810;8.342;2023-06-22T13:43:45;7.67;;;6.87;;
5805;SDS011;2929;50.810;8.342;2023-06-22T13:46:13;7.57;;;6.87;;
5805;SDS011;2929;50.810;8.342;2023-06-22T13:48:40;8.10;;;7.17;;
5805;SDS011;2929;50.810;8.342;2023-06-22T13:51:07;11.33;;;7.30;;
5805;SDS011;2929;50.810;8.342;2023-06-22T13:53:34;7.63;;;6.90;;
5805;SDS011;2929;50.810;8.342;2023-06-22T13:56:01;6.80;;;6.20;;
5805;SDS011;2929;50.810;8.342;2023-06-22T13:58:28;7.07;;;6.40;;
5805;SDS011;2929;50.810;8.342;2023-06-22T14:00:55;10.20;;;7.73;;
5805;SDS011;2929;50.810;8.342;2023-06-22T14:03:23;10.20;;;6.63;;
5805;SDS011;2929;50.810;8.342;2023-06-22T14:05:50;8.23;;;7.10;;
5805;SDS011;2929;50.810;8.342;2023-06-22T14:08:21;7.67;;;6.73;;
5805;SDS011;2929;50.810;8.342;2023-06-22T14:10:50;9.57;;;6.90;;
5805;SDS011;2929;50.810;8.342;2023-06-22T14:13:18;18.63;;;7.93;;
5805;SDS011;2929;50.810;8.342;2023-06-22T14:15:46;10.33;;;6.80;;
5805;SDS011;2929;50.810;8.342;2023-06-22T14:18:14;11.57;;;6.70;;
5805;SDS011;2929;50.810;8.342;2023-06-22T14:20:43;8.83;;;6.80;;
5805;SDS011;2929;50.810;8.342;2023-06-22T14:23:11;7.93;;;6.50;;
5805;SDS011;2929;50.810;8.342;2023-06-22T14:25:38;7.97;;;6.80;;
5805;SDS011;2929;50.810;8.342;2023-06-22T14:28:06;7.90;;;7.07;;
5805;SDS011;2929;50.810;8.342;2023-06-22T14:30:33;7.93;;;6.43;;
5805;SDS011;2929;50.810;8.342;2023-06-22T14:33:00;13.13;;;6.73;;
5805;SDS011;2929;50.810;8.342;2023-06-22T14:35:27;15.73;;;9.73;;
5805;SDS011;2929;50.810;8.342;2023-06-22T14:37:55;6.83;;;5.77;;
5805;SDS011;2929;50.810;8.342;2023-06-22T14:40:22;6.90;;;6.20;;
5805;SDS011;2929;50.810;8.342;2023-06-22T14:42:49;6.23;;;5.63;;
5805;SDS011;2929;50.810;8.342;2023-06-22T14:45:16;6.20;;;5.60;;
5805;SDS011;2929;50.810;8.342;2023-06-22T14:47:43;8.50;;;6.30;;
5805;SDS011;2929;50.810;8.342;2023-06-22T14:50:10;11.07;;;6.23;;
5805;SDS011;2929;50.810;8.342;2023-06-22T14:52:37;6.70;;;6.10;;
5805;SDS011;2929;50.810;8.342;2023-06-22T14:55:06;7.53;;;5.97;;
5805;SDS011;2929;50.810;8.342;2023-06-22T14:57:33;10.50;;;6.33;;
5805;SDS011;2929;50.810;8.342;2023-06-22T15:00:00;9.80;;;6.50;;
5805;SDS011;2929;50.810;8.342;2023-06-22T15:02:28;7.70;;;6.30;;